Metar z połowy godziny Komunikat METAR ze strony awiacja.imgw.pl Metar G00 EPPO METAR EPPO 160630Z 23011G21KT 9999 FEW020 BKN043 06/02 Q0999 =